createdAt,value
2022-12-08T00:01:21.984Z,11.83
2022-12-08T00:03:49.921Z,14.07
2022-12-08T00:06:42.124Z,12.03
2022-12-08T00:09:23.516Z,10.87
2022-12-08T00:12:01.331Z,12.00
2022-12-08T00:14:34.265Z,9.97
2022-12-08T00:17:02.438Z,12.77
2022-12-08T00:19:30.626Z,12.07
2022-12-08T00:21:58.353Z,11.30
2022-12-08T00:24:30.578Z,11.27
2022-12-08T00:26:58.343Z,11.93
2022-12-08T00:29:26.013Z,12.43
2022-12-08T00:31:53.949Z,10.17
2022-12-08T00:34:21.868Z,11.00
2022-12-08T00:36:49.708Z,11.13
2022-12-08T00:39:17.773Z,11.47
2022-12-08T00:42:04.063Z,11.30
2022-12-08T00:44:31.924Z,10.83
2022-12-08T00:46:59.701Z,9.53
2022-12-08T00:49:27.518Z,12.03
2022-12-08T00:51:55.204Z,9.60
2022-12-08T00:54:24.196Z,9.80
2022-12-08T00:56:51.982Z,10.63
2022-12-08T00:59:19.940Z,9.13
2022-12-08T01:01:47.744Z,11.03
2022-12-08T01:04:16.775Z,10.20
2022-12-08T01:06:44.678Z,11.97
2022-12-08T01:09:12.476Z,9.80
2022-12-08T01:11:40.188Z,10.83
2022-12-08T01:14:07.916Z,10.37
2022-12-08T01:16:36.349Z,11.17
2022-12-08T01:19:04.279Z,9.90
2022-12-08T01:21:32.037Z,9.80
2022-12-08T01:24:01.137Z,10.60
2022-12-08T01:26:28.877Z,11.10
2022-12-08T01:28:56.690Z,9.30
2022-12-08T01:31:24.627Z,11.03
2022-12-08T01:33:52.494Z,11.73
2022-12-08T01:36:27.586Z,10.07
2022-12-08T01:38:55.861Z,11.93
2022-12-08T01:41:24.794Z,10.80
2022-12-08T01:43:59.853Z,8.83
2022-12-08T01:46:28.161Z,9.60
2022-12-08T01:49:06.933Z,13.67
2022-12-08T01:51:40.017Z,11.30
2022-12-08T01:54:07.828Z,8.70
2022-12-08T01:56:47.459Z,8.57
2022-12-08T01:59:15.233Z,10.07
2022-12-08T02:01:43.041Z,8.80
2022-12-08T02:04:11.072Z,10.40
2022-12-08T02:06:40.995Z,8.87
2022-12-08T02:09:08.813Z,8.00
2022-12-08T02:11:36.641Z,7.23
2022-12-08T02:14:05.315Z,8.40
2022-12-08T02:16:33.049Z,8.03
2022-12-08T02:19:31.618Z,8.37
2022-12-08T02:22:11.793Z,8.47
2022-12-08T02:24:57.575Z,9.43
2022-12-08T02:27:54.918Z,10.37
2022-12-08T02:30:47.618Z,7.00
2022-12-08T02:33:52.839Z,9.37
2022-12-08T02:36:28.089Z,7.33
2022-12-08T02:39:10.142Z,7.93
2022-12-08T02:41:57.828Z,7.60
2022-12-08T02:44:38.631Z,8.50
2022-12-08T02:47:14.770Z,7.83
2022-12-08T02:49:42.526Z,8.93
2022-12-08T02:52:13.186Z,7.40
2022-12-08T02:54:43.290Z,7.57
2022-12-08T02:57:17.032Z,9.80
2022-12-08T02:59:57.868Z,9.93
2022-12-08T03:02:34.817Z,9.33
2022-12-08T03:05:23.784Z,8.73
2022-12-08T03:07:58.695Z,10.77
2022-12-08T03:10:35.289Z,8.33
2022-12-08T03:13:33.904Z,9.00
2022-12-08T03:16:01.680Z,8.83
2022-12-08T03:18:30.167Z,10.00
2022-12-08T03:20:57.912Z,8.80
2022-12-08T03:23:25.628Z,10.40
2022-12-08T03:26:16.382Z,8.87
2022-12-08T03:28:44.091Z,10.73
2022-12-08T03:31:13.445Z,11.50
2022-12-08T03:33:42.386Z,11.13
2022-12-08T03:36:10.506Z,10.30
2022-12-08T03:38:39.873Z,11.20
2022-12-08T03:41:19.559Z,9.33
2022-12-08T03:43:54.505Z,10.17
2022-12-08T03:48:50.694Z,11.47
2022-12-08T03:51:18.573Z,11.47
2022-12-08T03:53:46.400Z,9.37
2022-12-08T03:56:23.545Z,11.23
2022-12-08T03:58:51.218Z,10.73
2022-12-08T04:01:19.153Z,10.53
2022-12-08T04:03:46.894Z,11.97
2022-12-08T04:06:14.689Z,11.70
2022-12-08T04:08:42.538Z,11.10
2022-12-08T04:11:10.344Z,11.43
2022-12-08T04:13:38.765Z,10.10
2022-12-08T04:16:07.208Z,11.00
2022-12-08T04:18:35.706Z,10.13
2022-12-08T04:21:03.430Z,12.13
2022-12-08T04:23:31.209Z,9.90
2022-12-08T04:25:58.890Z,11.77
2022-12-08T04:28:26.669Z,10.83
2022-12-08T04:30:54.369Z,9.97
2022-12-08T04:33:22.300Z,8.53
2022-12-08T04:35:50.066Z,9.10
2022-12-08T04:38:18.143Z,8.30
2022-12-08T04:40:45.998Z,7.17
2022-12-08T04:43:13.711Z,8.77
2022-12-08T04:45:42.264Z,6.53
2022-12-08T04:48:10.111Z,6.87
2022-12-08T04:50:37.832Z,6.60
2022-12-08T04:53:05.601Z,7.80
2022-12-08T04:55:33.347Z,5.87
2022-12-08T04:58:01.098Z,6.50
2022-12-08T05:00:28.887Z,5.63
2022-12-08T05:02:56.664Z,6.47
2022-12-08T05:05:24.451Z,5.70
2022-12-08T05:07:52.265Z,9.27
2022-12-08T05:10:20.088Z,6.53
2022-12-08T05:12:47.802Z,7.00
2022-12-08T05:15:15.558Z,6.47
2022-12-08T05:17:43.383Z,6.97
2022-12-08T05:20:11.816Z,5.93
2022-12-08T05:22:39.641Z,7.20
2022-12-08T05:25:07.645Z,6.00
2022-12-08T05:27:35.447Z,6.53
2022-12-08T05:30:03.590Z,6.63
2022-12-08T05:32:31.573Z,6.53
2022-12-08T05:34:59.356Z,6.87
2022-12-08T05:37:27.264Z,6.67
2022-12-08T05:39:55.216Z,5.60
2022-12-08T05:42:24.919Z,7.93
2022-12-08T05:44:53.081Z,5.57
2022-12-08T05:47:20.775Z,6.20
2022-12-08T05:49:48.656Z,7.50
2022-12-08T05:52:18.066Z,8.80
2022-12-08T05:54:45.866Z,5.83
2022-12-08T05:57:13.750Z,5.43
2022-12-08T05:59:41.553Z,6.67
2022-12-08T06:02:09.893Z,8.50
2022-12-08T06:04:37.729Z,10.33
2022-12-08T06:07:05.504Z,7.40
2022-12-08T06:09:33.268Z,6.50
2022-12-08T06:12:01.560Z,7.03
2022-12-08T06:14:29.439Z,8.90
2022-12-08T06:16:57.374Z,7.70
2022-12-08T06:19:25.413Z,7.83
2022-12-08T06:21:53.233Z,7.10
2022-12-08T06:24:21.093Z,7.30
2022-12-08T06:26:48.924Z,7.77
2022-12-08T06:29:16.678Z,7.30
2022-12-08T06:31:44.504Z,9.40
2022-12-08T06:34:12.424Z,7.17
2022-12-08T06:36:40.245Z,9.30
2022-12-08T06:39:08.007Z,8.53
2022-12-08T06:41:55.696Z,9.10
2022-12-08T06:44:23.563Z,9.13
2022-12-08T06:46:51.249Z,7.87
2022-12-08T06:49:19.025Z,7.53
2022-12-08T06:51:46.753Z,8.57
2022-12-08T06:54:14.485Z,9.03
2022-12-08T06:56:42.424Z,9.20
2022-12-08T06:59:10.331Z,8.83
2022-12-08T07:01:38.092Z,10.40
2022-12-08T07:04:05.917Z,16.10
2022-12-08T07:06:33.796Z,13.47
2022-12-08T07:09:01.762Z,11.20
2022-12-08T07:11:29.418Z,9.17
2022-12-08T07:13:58.293Z,19.67
2022-12-08T07:16:26.173Z,10.93
2022-12-08T07:18:53.984Z,9.50
2022-12-08T07:21:21.747Z,10.53
2022-12-08T07:23:56.060Z,9.13
2022-12-08T07:26:25.566Z,8.43
2022-12-08T07:28:53.339Z,9.40
2022-12-08T07:31:22.845Z,10.70
2022-12-08T07:33:51.464Z,12.70
2022-12-08T07:36:19.263Z,12.57
2022-12-08T07:38:47.062Z,10.77
2022-12-08T07:41:19.217Z,12.40
2022-12-08T07:43:47.011Z,13.90
2022-12-08T07:46:20.303Z,11.57
2022-12-08T07:48:48.242Z,11.37
2022-12-08T07:51:16.504Z,29.47
2022-12-08T07:53:49.901Z,20.40
2022-12-08T07:56:21.190Z,13.27
2022-12-08T07:58:48.910Z,16.63
2022-12-08T08:01:24.526Z,13.43
2022-12-08T08:03:52.451Z,12.03
2022-12-08T08:06:20.333Z,12.30
2022-12-08T08:08:48.220Z,12.43
2022-12-08T08:11:20.919Z,12.73
2022-12-08T08:13:49.824Z,14.57
2022-12-08T08:16:17.880Z,12.33
2022-12-08T08:18:48.057Z,13.67
2022-12-08T08:21:43.965Z,10.13
2022-12-08T08:24:03.810Z,11.43
2022-12-08T08:26:31.533Z,12.40
2022-12-08T08:28:59.326Z,11.30
2022-12-08T08:31:28.079Z,15.43
2022-12-08T08:33:56.862Z,11.57
2022-12-08T08:36:24.677Z,12.43
2022-12-08T08:38:52.504Z,9.83
2022-12-08T08:41:20.370Z,14.43
2022-12-08T08:43:48.166Z,9.90
2022-12-08T08:46:16.004Z,12.43
2022-12-08T08:48:43.949Z,11.27
2022-12-08T08:51:13.174Z,12.43
2022-12-08T08:53:41.071Z,11.47
2022-12-08T08:56:12.812Z,11.63
2022-12-08T08:58:40.743Z,10.30
2022-12-08T09:01:08.538Z,10.73
2022-12-08T09:03:36.353Z,9.10
2022-12-08T09:06:04.218Z,8.33
2022-12-08T09:08:32.419Z,9.90
2022-12-08T09:11:00.146Z,12.73
2022-12-08T09:13:27.859Z,11.27
2022-12-08T09:15:55.670Z,14.40
2022-12-08T09:18:23.446Z,19.93
2022-12-08T09:20:51.223Z,9.90
2022-12-08T09:23:18.984Z,10.63
2022-12-08T09:25:46.844Z,11.93
2022-12-08T09:28:15.452Z,9.97
2022-12-08T09:30:43.237Z,11.70
2022-12-08T09:33:10.988Z,9.60
2022-12-08T09:35:38.883Z,12.17
2022-12-08T09:38:06.821Z,10.53
2022-12-08T09:40:36.347Z,9.57
2022-12-08T09:43:23.712Z,12.47
2022-12-08T09:45:52.884Z,16.47
2022-12-08T09:48:21.157Z,11.00
2022-12-08T09:50:54.810Z,10.43
2022-12-08T09:53:23.442Z,8.93
2022-12-08T09:55:53.465Z,9.37
2022-12-08T09:58:30.647Z,8.23
2022-12-08T10:00:58.441Z,9.60
2022-12-08T10:03:29.150Z,9.63
2022-12-08T10:06:21.257Z,9.43
2022-12-08T10:09:11.171Z,9.73
2022-12-08T10:11:45.173Z,11.47
2022-12-08T10:14:24.958Z,8.27
2022-12-08T10:16:53.783Z,9.40
2022-12-08T10:19:23.254Z,8.90
2022-12-08T10:21:51.258Z,9.47
2022-12-08T10:24:32.668Z,12.33
2022-12-08T10:27:00.474Z,10.77
2022-12-08T10:29:28.294Z,9.03
2022-12-08T10:31:58.360Z,9.20
2022-12-08T10:34:27.302Z,8.60
2022-12-08T10:36:59.262Z,8.33
2022-12-08T10:39:40.985Z,7.80
2022-12-08T10:42:21.947Z,8.67
2022-12-08T10:44:58.746Z,8.37
2022-12-08T10:47:30.031Z,8.80
2022-12-08T10:50:09.177Z,8.47
2022-12-08T10:52:41.019Z,8.50
2022-12-08T10:55:18.451Z,10.43
2022-12-08T10:57:46.487Z,9.07
2022-12-08T11:00:22.726Z,8.93
2022-12-08T11:03:04.553Z,8.00
2022-12-08T11:05:34.329Z,8.90
2022-12-08T11:08:02.367Z,8.40
2022-12-08T11:10:39.542Z,9.13
2022-12-08T11:13:08.414Z,8.93
2022-12-08T11:15:39.040Z,7.13
2022-12-08T11:18:19.978Z,7.10
2022-12-08T11:20:47.709Z,7.33
2022-12-08T11:23:26.262Z,7.60
2022-12-08T11:25:54.028Z,7.20
2022-12-08T11:28:24.556Z,7.53
2022-12-08T11:31:05.774Z,6.53
2022-12-08T11:33:33.704Z,8.17
2022-12-08T11:36:08.731Z,8.97
2022-12-08T11:38:36.598Z,7.07
2022-12-08T11:41:15.765Z,6.73
2022-12-08T11:43:49.435Z,7.87
2022-12-08T11:46:22.856Z,6.90
2022-12-08T11:49:06.830Z,6.37
2022-12-08T11:51:40.756Z,5.80
2022-12-08T11:54:33.441Z,5.93
2022-12-08T11:57:02.717Z,7.07
2022-12-08T11:59:34.508Z,6.73
2022-12-08T12:02:03.153Z,7.60
2022-12-08T12:04:38.444Z,6.83
2022-12-08T12:07:09.203Z,8.93
2022-12-08T12:10:02.391Z,6.27
2022-12-08T12:12:39.260Z,4.57
2022-12-08T12:15:43.104Z,6.20
2022-12-08T12:18:27.442Z,7.87
2022-12-08T12:21:23.776Z,9.27
2022-12-08T12:24:08.167Z,7.53
2022-12-08T12:26:38.747Z,8.40
2022-12-08T12:29:17.474Z,6.70
2022-12-08T12:31:49.438Z,6.40
2022-12-08T12:34:21.838Z,6.30
2022-12-08T12:37:00.458Z,6.77
2022-12-08T12:39:33.645Z,6.60
2022-12-08T12:42:05.195Z,7.53
2022-12-08T12:44:35.915Z,6.53
2022-12-08T12:47:05.158Z,7.97
2022-12-08T12:49:42.017Z,8.87
2022-12-08T12:52:22.233Z,6.57
2022-12-08T12:54:52.982Z,5.70
2022-12-08T12:57:20.660Z,5.97
2022-12-08T12:59:55.784Z,8.73
2022-12-08T13:02:34.403Z,6.53
2022-12-08T13:05:16.682Z,6.27
2022-12-08T13:07:57.643Z,7.90
2022-12-08T13:10:34.247Z,6.93
2022-12-08T13:13:11.040Z,7.83
2022-12-08T13:15:39.509Z,7.43
2022-12-08T13:18:36.450Z,7.80
2022-12-08T13:21:16.290Z,6.83
2022-12-08T13:24:04.008Z,7.47
2022-12-08T13:26:31.763Z,9.23
2022-12-08T13:29:02.622Z,7.90
2022-12-08T13:31:36.400Z,6.73
2022-12-08T13:34:22.473Z,8.67
2022-12-08T13:37:12.140Z,7.23
2022-12-08T13:40:04.825Z,7.73
2022-12-08T13:42:41.627Z,6.53
2022-12-08T13:45:33.426Z,9.00
2022-12-08T13:53:10.303Z,8.43
2022-12-08T13:57:06.718Z,7.00
2022-12-08T13:59:35.312Z,9.50
2022-12-08T14:02:25.494Z,6.73
2022-12-08T14:07:41.705Z,8.10
2022-12-08T14:10:17.937Z,8.07
2022-12-08T14:12:47.422Z,7.77
2022-12-08T14:15:16.501Z,7.57
2022-12-08T14:17:52.465Z,7.73
2022-12-08T14:20:46.534Z,8.70
2022-12-08T14:23:21.405Z,8.23
2022-12-08T14:25:49.172Z,10.47
2022-12-08T14:28:17.013Z,8.77
2022-12-08T14:30:44.792Z,8.60
2022-12-08T14:33:18.005Z,10.57
2022-12-08T14:35:50.178Z,7.20
2022-12-08T14:38:19.195Z,8.90
2022-12-08T14:40:47.669Z,7.67
2022-12-08T14:43:20.206Z,9.13
2022-12-08T14:45:51.962Z,7.13
2022-12-08T14:48:34.706Z,9.67
2022-12-08T14:51:05.410Z,10.37
2022-12-08T14:54:01.764Z,9.37
2022-12-08T14:56:52.894Z,8.37
2022-12-08T14:59:26.744Z,8.63
2022-12-08T15:02:09.996Z,7.93
2022-12-08T15:04:45.296Z,6.87
2022-12-08T15:07:18.391Z,7.57
2022-12-08T15:09:51.207Z,6.50
2022-12-08T15:12:33.022Z,7.70
2022-12-08T15:15:03.529Z,7.07
2022-12-08T15:17:34.782Z,9.13
2022-12-08T15:20:03.264Z,7.40
2022-12-08T15:22:31.286Z,7.07
2022-12-08T15:24:59.055Z,9.60
2022-12-08T15:27:26.842Z,7.70
2022-12-08T15:29:54.803Z,7.27
2022-12-08T15:32:23.581Z,9.57
2022-12-08T15:34:51.760Z,6.27
2022-12-08T15:37:27.442Z,7.10
2022-12-08T15:39:55.304Z,6.67
2022-12-08T15:42:23.056Z,6.10
2022-12-08T15:44:50.872Z,8.27
2022-12-08T15:47:20.485Z,6.47
2022-12-08T15:49:48.678Z,6.83
2022-12-08T15:52:18.735Z,8.40
2022-12-08T15:54:46.448Z,23.30
2022-12-08T16:00:50.991Z,7.57
2022-12-08T16:04:08.915Z,7.20
2022-12-08T16:07:04.664Z,7.60
2022-12-08T16:09:12.390Z,7.50
2022-12-08T16:12:09.038Z,6.70
2022-12-08T16:17:25.306Z,7.10
2022-12-08T16:19:53.148Z,7.20
2022-12-08T16:25:19.408Z,7.47
2022-12-08T16:28:01.266Z,10.20
2022-12-08T16:30:33.539Z,8.33
2022-12-08T16:33:01.330Z,8.83
2022-12-08T16:35:29.239Z,6.57
2022-12-08T16:37:57.061Z,6.87
2022-12-08T16:40:24.866Z,7.80
2022-12-08T16:42:52.693Z,6.47
2022-12-08T16:45:30.609Z,7.13
2022-12-08T16:48:01.937Z,7.17
2022-12-08T16:50:31.645Z,7.83
2022-12-08T16:53:03.953Z,6.83
2022-12-08T16:55:31.925Z,8.33
2022-12-08T16:57:59.872Z,9.70
2022-12-08T17:00:28.511Z,9.73
2022-12-08T17:02:56.504Z,8.07
2022-12-08T17:05:25.577Z,8.17
2022-12-08T17:07:53.748Z,7.07
2022-12-08T17:10:24.190Z,8.63
2022-12-08T17:12:52.187Z,9.03
2022-12-08T17:15:21.860Z,7.97
2022-12-08T17:17:49.836Z,6.03
2022-12-08T17:20:25.212Z,9.20
2022-12-08T17:22:59.567Z,8.43
2022-12-08T17:25:27.859Z,8.53
2022-12-08T17:27:55.854Z,9.43
2022-12-08T17:30:23.754Z,9.07
2022-12-08T17:32:53.871Z,7.93
2022-12-08T17:35:21.711Z,10.70
2022-12-08T17:37:49.787Z,8.30
2022-12-08T17:40:17.485Z,7.03
2022-12-08T17:42:45.276Z,9.97
2022-12-08T17:45:13.092Z,10.03
2022-12-08T17:47:40.865Z,8.30
2022-12-08T17:50:09.470Z,9.77
2022-12-08T17:52:37.404Z,8.57
2022-12-08T17:55:05.474Z,9.53
2022-12-08T17:57:33.268Z,11.33
2022-12-08T18:00:01.072Z,12.13
2022-12-08T18:02:30.047Z,12.73
2022-12-08T18:04:58.105Z,15.17
2022-12-08T18:07:25.951Z,10.60
2022-12-08T18:09:53.884Z,12.87
2022-12-08T18:12:23.777Z,10.23
2022-12-08T18:14:52.845Z,11.73
2022-12-08T18:17:21.671Z,12.93
2022-12-08T18:19:49.538Z,13.80
2022-12-08T18:22:17.295Z,12.33
2022-12-08T18:24:45.449Z,12.40
2022-12-08T18:27:13.266Z,12.10
2022-12-08T18:29:41.287Z,16.10
2022-12-08T18:32:09.679Z,14.37
2022-12-08T18:34:37.469Z,13.70
2022-12-08T18:37:05.512Z,14.87
2022-12-08T18:39:33.763Z,14.43
2022-12-08T18:42:03.684Z,13.63
2022-12-08T18:44:31.479Z,12.97
2022-12-08T18:46:59.309Z,11.40
2022-12-08T18:49:27.716Z,12.67
2022-12-08T18:51:55.577Z,11.97
2022-12-08T18:54:37.006Z,17.27
2022-12-08T18:57:11.782Z,18.53
2022-12-08T18:59:39.684Z,12.70
2022-12-08T19:02:07.545Z,10.77
2022-12-08T19:04:38.943Z,11.33
2022-12-08T19:07:06.981Z,12.23
2022-12-08T19:09:34.761Z,11.57
2022-12-08T19:12:02.552Z,12.30
2022-12-08T19:14:31.768Z,12.30
2022-12-08T19:16:59.665Z,12.20
2022-12-08T19:19:27.900Z,12.67
2022-12-08T19:21:55.834Z,12.87
2022-12-08T19:24:24.154Z,11.90
2022-12-08T19:26:52.012Z,11.27
2022-12-08T19:29:19.784Z,12.10
2022-12-08T19:31:47.686Z,13.60
2022-12-08T19:34:15.700Z,12.53
2022-12-08T19:36:44.100Z,12.90
2022-12-08T19:39:36.101Z,13.67
2022-12-08T19:42:22.878Z,14.27
2022-12-08T19:44:56.552Z,12.30
2022-12-08T19:47:28.232Z,15.87
2022-12-08T19:50:16.385Z,16.03
2022-12-08T19:52:44.464Z,18.03
2022-12-08T19:55:12.606Z,17.00
2022-12-08T19:57:40.456Z,18.90
2022-12-08T20:00:09.378Z,16.03
2022-12-08T20:02:37.928Z,15.57
2022-12-08T20:05:06.813Z,12.97
2022-12-08T20:07:34.753Z,12.63
2022-12-08T20:10:05.164Z,15.20
2022-12-08T20:12:33.212Z,12.97
2022-12-08T20:15:01.093Z,13.03
2022-12-08T20:17:28.929Z,11.43
2022-12-08T20:19:56.781Z,12.93
2022-12-08T20:22:24.590Z,13.40
2022-12-08T20:24:58.410Z,14.17
2022-12-08T20:27:30.134Z,14.70
2022-12-08T20:29:58.046Z,15.60
2022-12-08T20:32:25.791Z,13.73
2022-12-08T20:34:53.690Z,14.93
2022-12-08T20:37:21.520Z,14.43
2022-12-08T20:39:49.860Z,18.87
2022-12-08T20:42:17.724Z,15.03
2022-12-08T20:44:45.539Z,13.43
2022-12-08T20:47:14.149Z,13.60
2022-12-08T20:49:46.613Z,12.83
2022-12-08T20:52:15.306Z,12.17
2022-12-08T20:54:43.113Z,35.67
2022-12-08T20:57:11.089Z,19.87
2022-12-08T20:59:38.949Z,15.73
2022-12-08T21:02:06.910Z,20.17
2022-12-08T21:04:35.151Z,16.62
2022-12-08T21:07:03.093Z,15.53
2022-12-08T21:09:31.048Z,15.97
2022-12-08T21:11:58.952Z,16.40
2022-12-08T21:14:26.984Z,15.23
2022-12-08T21:16:55.691Z,12.70
2022-12-08T21:19:26.362Z,15.93
2022-12-08T21:21:54.192Z,15.03
2022-12-08T21:24:21.952Z,15.53
2022-12-08T21:26:50.780Z,15.50
2022-12-08T21:29:18.564Z,14.43
2022-12-08T21:31:46.574Z,12.57
2022-12-08T21:34:14.384Z,14.27
2022-12-08T21:36:42.443Z,13.17
2022-12-08T21:39:14.019Z,14.97
2022-12-08T21:42:00.689Z,11.80
2022-12-08T21:44:28.729Z,12.57
2022-12-08T21:46:56.681Z,13.70
2022-12-08T21:49:24.730Z,16.77
2022-12-08T21:51:52.892Z,16.50
2022-12-08T21:54:20.853Z,17.43
2022-12-08T21:56:49.380Z,14.83
2022-12-08T21:59:18.144Z,14.73
2022-12-08T22:01:46.301Z,15.83
2022-12-08T22:04:19.440Z,16.97
2022-12-08T22:06:47.424Z,11.57
2022-12-08T22:09:16.432Z,15.23
2022-12-08T22:11:44.853Z,12.73
2022-12-08T22:14:15.245Z,14.23
2022-12-08T22:16:44.349Z,14.60
2022-12-08T22:19:13.232Z,13.80
2022-12-08T22:21:41.593Z,14.03
2022-12-08T22:24:09.788Z,15.07
2022-12-08T22:26:40.175Z,12.80
2022-12-08T22:29:08.073Z,14.10
2022-12-08T22:31:40.529Z,10.37
2022-12-08T22:34:08.393Z,12.73
2022-12-08T22:36:36.373Z,34.97
2022-12-08T22:39:04.750Z,13.43
2022-12-08T22:41:32.646Z,12.53
2022-12-08T22:44:00.432Z,12.77
2022-12-08T22:46:28.230Z,10.00
2022-12-08T22:48:56.214Z,11.47
2022-12-08T22:51:24.021Z,12.30
2022-12-08T22:53:51.984Z,11.13
2022-12-08T22:56:20.344Z,11.03
2022-12-08T22:58:48.384Z,12.47
2022-12-08T23:01:24.103Z,12.40
2022-12-08T23:03:52.132Z,11.97
2022-12-08T23:06:20.370Z,11.80
2022-12-08T23:08:48.233Z,11.90
2022-12-08T23:11:16.207Z,12.47
2022-12-08T23:13:44.118Z,12.90
2022-12-08T23:16:12.467Z,15.90
2022-12-08T23:18:44.921Z,11.90
2022-12-08T23:21:15.233Z,12.40
2022-12-08T23:23:43.171Z,12.80
2022-12-08T23:26:30.388Z,13.13
2022-12-08T23:28:58.478Z,11.37
2022-12-08T23:31:26.801Z,11.97
2022-12-08T23:33:54.817Z,10.67
2022-12-08T23:36:23.190Z,10.37
2022-12-08T23:38:50.905Z,13.20
2022-12-08T23:41:23.469Z,11.90
2022-12-08T23:43:51.994Z,13.43
2022-12-08T23:46:21.414Z,14.03
2022-12-08T23:48:49.731Z,9.53
2022-12-08T23:51:17.694Z,11.33
2022-12-08T23:53:46.842Z,9.67
2022-12-08T23:56:15.976Z,14.50
2022-12-08T23:58:44.200Z,11.17
